Time;durP1;ratioP1;P1;durP2;ratioP2;P2;SDS_P1;SDS_P2;PMS_P1;PMS_P2;Temp;Humidity;BMP_temperature;BMP_pressure;BME280_temperature;BME280_humidity;BME280_pressure;Samples;Min_cycle;Max_cycle;Signal;HPM_P1;HPM_P2
2021/12/15 00:01:16;;;;;;;1.27;0.77;;;;;;;-149.78;100.00;50553.59;5116750;27;20540;-73
2021/12/15 00:03:42;;;;;;;1.67;0.60;;;;;;;-149.78;100.00;50541.84;5116868;27;20454;-73
2021/12/15 00:06:16;;;;;;;0.50;0.50;;;;;;;-149.78;100.00;50557.50;5135163;27;20088;-73
2021/12/15 00:08:45;;;;;;;0.50;0.45;;;;;;;-149.78;100.00;50580.97;5134566;27;20031;-73
2021/12/15 00:11:11;;;;;;;0.75;0.50;;;;;;;-149.78;100.00;50553.59;5134992;27;20026;-73
2021/12/15 00:13:39;;;;;;;0.60;0.50;;;;;;;-149.78;100.00;50545.75;5134942;27;20039;-73
2021/12/15 00:16:07;;;;;;;1.42;0.80;;;;;;;-149.78;100.00;50537.94;5134737;27;20027;-73
2021/12/15 00:18:35;;;;;;;0.73;0.68;;;;;;;-149.78;100.00;50584.88;5134518;27;20038;-73
2021/12/15 00:21:02;;;;;;;1.38;1.10;;;;;;;-149.78;100.00;50532.06;5134577;27;20030;-73
2021/12/15 00:23:28;;;;;;;0.93;0.60;;;;;;;-149.78;100.00;50553.59;5082867;27;20110;-73
2021/12/15 00:25:54;;;;;;;0.50;0.50;;;;;;;-149.78;100.00;50561.41;5134442;27;20107;-73
2021/12/15 00:28:20;;;;;;;1.13;0.85;;;;;;;-149.78;100.00;50551.63;5116423;28;20047;-73
2021/12/15 00:30:46;;;;;;;1.00;0.90;;;;;;;-149.78;100.00;50565.31;5116715;28;20435;-73
2021/12/15 00:33:11;;;;;;;1.20;1.10;;;;;;;-149.78;100.00;50532.06;5115898;28;20038;-73
2021/12/15 00:35:37;;;;;;;1.77;0.90;;;;;;;-149.78;100.00;50535.97;5098701;27;20363;-73
2021/12/15 00:38:05;;;;;;;1.30;1.20;;;;;;;-149.78;100.00;50526.22;5125506;28;20115;-73
2021/12/15 00:40:32;;;;;;;1.30;1.13;;;;;;;-149.78;100.00;50561.41;5113949;28;20028;-73
2021/12/15 00:42:58;;;;;;;1.35;1.23;;;;;;;-149.78;100.00;50577.06;5113858;28;20031;-73
2021/12/15 00:45:24;;;;;;;1.48;1.30;;;;;;;-149.78;100.00;50565.31;5098741;28;20049;-73
2021/12/15 00:47:50;;;;;;;1.85;1.30;;;;;;;-149.78;100.00;50580.97;5133823;27;20031;-73
2021/12/15 00:50:23;;;;;;;1.33;1.23;;;;;;;-149.78;100.00;50561.41;5099922;28;20027;-73
2021/12/15 00:52:48;;;;;;;2.92;1.38;;;;;;;-149.78;100.00;50584.88;5115177;28;20031;-73
2021/12/15 00:55:18;;;;;;;2.65;1.05;;;;;;;-149.78;100.00;50551.63;5116076;28;20040;-73
2021/12/15 00:57:45;;;;;;;1.50;1.25;;;;;;;-149.78;100.00;50561.41;5115997;28;20042;-73
2021/12/15 01:00:16;;;;;;;1.75;1.42;;;;;;;-149.78;100.00;50555.53;5116127;28;20031;-73
2021/12/15 01:02:42;;;;;;;2.13;1.00;;;;;;;-149.78;100.00;50534.03;5134415;28;20035;-74
2021/12/15 01:05:10;;;;;;;1.15;1.05;;;;;;;-149.78;100.00;50573.16;5116125;28;20041;-74
2021/12/15 01:07:36;;;;;;;1.70;1.27;;;;;;;-149.78;100.00;50526.22;5123459;28;20484;-73
2021/12/15 01:10:05;;;;;;;1.90;1.42;;;;;;;-149.78;100.00;50557.50;5132964;28;20037;-73
2021/12/15 01:14:32;;;;;;;1.30;1.00;;;;;;;-149.78;100.00;50530.13;5132999;28;20037;-73
2021/12/15 01:20:58;;;;;;;1.00;0.90;;;;;;;-149.78;100.00;50559.47;5134046;28;20027;-73
2021/12/15 01:23:26;;;;;;;2.67;1.00;;;;;;;-149.78;100.00;50553.59;5134108;28;20032;-71
2021/12/15 01:26:04;;;;;;;2.13;1.00;;;;;;;-149.78;100.00;50541.84;5115550;28;20066;-71
2021/12/15 01:28:30;;;;;;;1.25;0.95;;;;;;;-149.78;100.00;50571.19;5132508;28;20047;-71
2021/12/15 01:30:59;;;;;;;1.17;1.05;;;;;;;-149.78;100.00;50573.16;5117838;27;20034;-73
2021/12/15 01:33:26;;;;;;;1.00;0.90;;;;;;;-149.78;100.00;50557.50;5132009;27;20523;-73
2021/12/15 01:35:53;;;;;;;1.83;0.80;;;;;;;-149.78;100.00;50522.28;5099028;28;20043;-73
2021/12/15 01:38:21;;;;;;;0.75;0.70;;;;;;;-149.78;100.00;50537.94;5117179;28;20425;-74
2021/12/15 01:40:48;;;;;;;0.60;0.60;;;;;;;-149.78;100.00;50584.88;5117485;28;20034;-73
2021/12/15 01:43:22;;;;;;;3.90;0.98;;;;;;;-149.78;100.00;50545.75;5099028;28;20119;-73
2021/12/15 01:48:37;;;;;;;0.70;0.70;;;;;;;-149.78;100.00;50553.59;5117349;28;20035;-73
2021/12/15 01:51:05;;;;;;;0.63;0.60;;;;;;;-149.78;100.00;50549.69;5117104;28;20084;-73
2021/12/15 01:53:31;;;;;;;0.50;0.50;;;;;;;-149.78;100.00;50590.75;5098832;28;20042;-73
2021/12/15 01:55:57;;;;;;;0.95;0.65;;;;;;;-149.78;100.00;50573.16;5081831;28;20031;-73
2021/12/15 01:58:23;;;;;;;2.65;0.80;;;;;;;-149.78;100.00;50557.50;5116831;28;20023;-73
2021/12/15 02:00:54;;;;;;;0.77;0.70;;;;;;;-149.78;100.00;50561.41;5098473;28;20032;-73
2021/12/15 02:03:21;;;;;;;2.35;0.80;;;;;;;-149.78;100.00;50573.16;5116782;28;20428;-73
2021/12/15 02:05:47;;;;;;;0.70;0.70;;;;;;;-149.78;100.00;50580.97;5116526;28;20127;-73
2021/12/15 02:08:13;;;;;;;0.88;0.80;;;;;;;-149.78;100.00;50553.59;5133229;27;20103;-73
2021/12/15 02:10:41;;;;;;;0.80;0.80;;;;;;;-149.78;100.00;50559.47;5137375;27;20546;-73
2021/12/15 02:13:12;;;;;;;2.35;1.08;;;;;;;-149.78;100.00;50532.06;5126187;27;20160;-73
2021/12/15 02:15:42;;;;;;;0.95;0.88;;;;;;;-149.78;100.00;50596.63;5137257;27;20023;-73
2021/12/15 02:18:12;;;;;;;0.93;0.70;;;;;;;-149.78;100.00;50565.31;5131523;27;20074;-74
2021/12/15 02:20:43;;;;;;;0.90;0.70;;;;;;;-149.78;100.00;50573.16;5136930;27;20031;-73
2021/12/15 02:23:11;;;;;;;0.80;0.68;;;;;;;-149.78;100.00;50545.75;5136773;27;20038;-71
2021/12/15 02:25:37;;;;;;;1.27;0.50;;;;;;;-149.78;100.00;50561.41;5136641;27;20031;-71
2021/12/15 02:28:06;;;;;;;0.77;0.70;;;;;;;-149.78;100.00;50553.59;5136460;27;20051;-71
2021/12/15 02:33:38;;;;;;;2.05;0.60;;;;;;;-149.78;100.00;50575.09;5115505;27;20030;-71
2021/12/15 02:38:44;;;;;;;1.25;0.52;;;;;;;-149.78;100.00;50573.16;5157253;27;20074;-71
2021/12/15 02:41:19;;;;;;;1.35;0.70;;;;;;;-149.78;100.00;50579.00;5137077;27;20133;-71
2021/12/15 02:43:49;;;;;;;1.55;0.70;;;;;;;-149.78;100.00;50547.72;5101070;27;20427;-71
2021/12/15 02:46:15;;;;;;;1.05;0.60;;;;;;;-149.78;100.00;50557.50;5117768;27;20035;-71
2021/12/15 02:48:41;;;;;;;0.82;0.50;;;;;;;-149.78;100.00;50530.13;5135022;27;20035;-72
2021/12/15 02:51:07;;;;;;;1.90;0.70;;;;;;;-149.78;100.00;50588.78;5134792;27;20031;-71
2021/12/15 02:53:33;;;;;;;0.77;0.70;;;;;;;-149.78;100.00;50573.16;5136031;27;20546;-71
2021/12/15 02:55:59;;;;;;;3.10;0.70;;;;;;;-149.78;100.00;50553.59;5134694;27;20409;-71
2021/12/15 02:58:32;;;;;;;1.00;0.70;;;;;;;-149.78;100.00;50596.63;5136011;27;20035;-71
2021/12/15 03:01:03;;;;;;;;;;;;;;;-149.78;100.00;50616.19;5136152;27;20375;-71
2021/12/15 03:06:23;;;;;;;3.53;0.80;;;;;;;-149.78;100.00;50565.31;5135583;27;20046;-71
2021/12/15 03:09:09;;;;;;;1.23;0.50;;;;;;;-149.78;100.00;50580.97;5114217;28;20035;-71
2021/12/15 03:17:08;;;;;;;1.95;0.70;;;;;;;-149.78;100.00;50561.41;5083798;28;20047;-71
2021/12/15 03:19:33;;;;;;;0.50;0.50;;;;;;;-149.78;100.00;50580.97;5102777;27;20027;-71
2021/12/15 03:21:59;;;;;;;1.42;0.70;;;;;;;-149.78;100.00;50573.16;5135581;27;20027;-71
2021/12/15 03:24:28;;;;;;;1.48;0.60;;;;;;;-149.78;100.00;50577.06;5124408;27;20034;-71
2021/12/15 03:27:03;;;;;;;1.05;0.63;;;;;;;-149.78;100.00;50557.50;5135208;27;20039;-71
2021/12/15 03:36:02;;;;;;;1.00;0.65;;;;;;;-149.78;100.00;50557.50;5120944;27;20033;-71
2021/12/15 03:37:55;;;;;;;0.60;0.60;;;;;;;-149.78;100.00;50575.09;5120514;27;20512;-71
2021/12/15 03:40:33;;;;;;;2.05;0.50;;;;;;;-149.78;100.00;50586.84;5116685;27;20027;-71
2021/12/15 03:43:03;;;;;;;1.17;0.50;;;;;;;-149.78;100.00;50557.50;5135302;27;20034;-71
2021/12/15 03:45:41;;;;;;;14.85;0.77;;;;;;;-149.78;100.00;50557.50;5099822;27;20491;-71
2021/12/15 03:48:13;;;;;;;3.08;0.60;;;;;;;-149.78;100.00;50553.59;5134920;27;20042;-71
2021/12/15 03:50:41;;;;;;;3.15;0.57;;;;;;;-149.78;100.00;50577.06;5135166;27;20117;-71
2021/12/15 03:53:07;;;;;;;1.08;0.70;;;;;;;-149.78;100.00;50573.16;5133848;27;20088;-71
2021/12/15 03:55:34;;;;;;;2.55;0.50;;;;;;;-149.78;100.00;50584.88;5134985;27;20031;-71
2021/12/15 03:58:06;;;;;;;2.42;0.77;;;;;;;-149.78;100.00;50600.53;5134383;27;20118;-71
2021/12/15 04:00:32;;;;;;;2.75;0.68;;;;;;;-149.78;100.00;50565.31;5134941;27;20066;-71
2021/12/15 04:02:57;;;;;;;1.80;0.60;;;;;;;-149.78;100.00;50565.31;5134731;27;20042;-71
2021/12/15 04:05:24;;;;;;;4.07;0.70;;;;;;;-149.78;100.00;50553.59;5134535;27;20035;-71
2021/12/15 04:07:51;;;;;;;1.17;0.50;;;;;;;-149.78;100.00;50563.38;5134785;27;20163;-71
2021/12/15 04:10:21;;;;;;;0.73;0.52;;;;;;;-149.78;100.00;50549.69;5082291;27;20046;-71
2021/12/15 04:12:47;;;;;;;3.47;1.20;;;;;;;-149.78;100.00;50553.59;5134626;27;20023;-71
2021/12/15 04:17:50;;;;;;;3.47;0.80;;;;;;;-149.78;100.00;50520.34;5134661;27;20027;-71
2021/12/15 04:20:19;;;;;;;0.60;0.50;;;;;;;-149.78;100.00;50541.84;5116089;27;20121;-71
2021/12/15 04:22:46;;;;;;;1.48;0.52;;;;;;;-149.78;100.00;50555.53;5116052;27;20031;-72
2021/12/15 04:25:22;;;;;;;3.50;0.68;;;;;;;-149.78;100.00;50553.59;5103629;28;20538;-71
2021/12/15 04:28:22;;;;;;;3.35;0.70;;;;;;;-149.78;100.00;50547.72;5109639;28;20084;-71
2021/12/15 04:30:59;;;;;;;4.75;0.85;;;;;;;-149.78;100.00;50534.03;5134157;27;20027;-71
2021/12/15 04:33:33;;;;;;;6.65;0.73;;;;;;;-149.78;100.00;50553.59;5128094;27;20035;-71
2021/12/15 04:36:02;;;;;;;3.05;0.70;;;;;;;-149.78;100.00;50561.41;5115856;28;20034;-71
2021/12/15 04:38:31;;;;;;;1.73;0.60;;;;;;;-149.78;100.00;50561.41;5133727;28;20130;-71
2021/12/15 04:40:59;;;;;;;6.38;0.52;;;;;;;-149.78;100.00;50537.94;5134349;28;20034;-72
2021/12/15 04:43:30;;;;;;;0.98;0.50;;;;;;;-149.78;100.00;50553.59;5133003;28;20034;-71
2021/12/15 04:45:57;;;;;;;1.20;0.60;;;;;;;-149.78;100.00;50584.88;5099645;28;20036;-71
2021/12/15 04:48:22;;;;;;;1.40;0.60;;;;;;;-149.78;100.00;50557.50;5134397;28;20077;-71
2021/12/15 04:50:48;;;;;;;0.85;0.50;;;;;;;-149.78;100.00;50571.19;5134300;28;20069;-71
2021/12/15 04:53:14;;;;;;;3.15;0.60;;;;;;;-149.78;100.00;50584.88;5134360;28;20027;-71
2021/12/15 04:55:40;;;;;;;2.33;0.60;;;;;;;-149.78;100.00;50551.63;5134222;28;20031;-71
2021/12/15 04:58:09;;;;;;;1.17;0.50;;;;;;;-149.78;100.00;50577.06;5134353;28;20027;-71
2021/12/15 05:00:41;;;;;;;2.67;0.60;;;;;;;-149.78;100.00;50584.88;5134264;27;20035;-71
2021/12/15 05:03:07;;;;;;;0.90;0.40;;;;;;;-149.78;100.00;50557.50;5134114;28;20043;-71
2021/12/15 05:05:34;;;;;;;1.35;0.60;;;;;;;-149.78;100.00;50543.81;5118451;27;20035;-71
2021/12/15 05:08:01;;;;;;;1.77;0.60;;;;;;;-149.78;100.00;50580.97;5138117;27;20055;-71
2021/12/15 05:10:27;;;;;;;2.58;0.60;;;;;;;-149.78;100.00;50584.88;5137917;27;20068;-71
2021/12/15 05:12:55;;;;;;;3.65;0.60;;;;;;;-149.78;100.00;50514.47;5138054;27;20037;-71
2021/12/15 05:15:21;;;;;;;2.50;0.52;;;;;;;-149.78;100.00;50569.22;5138020;27;20160;-71
2021/12/15 05:17:47;;;;;;;3.83;0.70;;;;;;;-149.78;100.00;50557.50;5107711;27;20044;-71
2021/12/15 05:20:13;;;;;;;1.67;0.50;;;;;;;-149.78;100.00;50598.56;5137465;27;20039;-71
2021/12/15 05:22:39;;;;;;;5.10;0.70;;;;;;;-149.78;100.00;50561.41;5118938;27;20027;-71
2021/12/15 05:25:07;;;;;;;4.68;0.47;;;;;;;-149.78;100.00;50584.88;5137454;27;20031;-71
2021/12/15 05:27:33;;;;;;;3.28;0.70;;;;;;;-149.78;100.00;50545.75;5137829;27;20046;-71
2021/12/15 05:29:59;;;;;;;1.90;0.50;;;;;;;-149.78;100.00;50553.59;5141135;27;20067;-71
2021/12/15 05:32:25;;;;;;;1.85;0.63;;;;;;;-149.78;100.00;50545.75;5120544;27;20402;-71
2021/12/15 05:34:54;;;;;;;1.80;0.60;;;;;;;-149.78;100.00;50541.84;5108539;27;20482;-71
2021/12/15 05:37:22;;;;;;;3.42;0.70;;;;;;;-149.78;100.00;50565.31;5137931;27;20030;-71
2021/12/15 05:39:50;;;;;;;1.75;0.70;;;;;;;-149.78;100.00;50604.44;5138538;27;20490;-71
2021/12/15 05:42:19;;;;;;;2.55;0.50;;;;;;;-149.78;100.00;50541.84;5137515;27;20402;-71
2021/12/15 05:44:45;;;;;;;1.70;0.70;;;;;;;-149.78;100.00;50557.50;5136428;27;20059;-71
2021/12/15 05:47:11;;;;;;;3.70;0.60;;;;;;;-149.78;100.00;50526.22;5136277;27;20045;-71
2021/12/15 05:49:37;;;;;;;2.75;0.68;;;;;;;-149.78;100.00;50577.06;5137896;27;20102;-71
2021/12/15 05:52:05;;;;;;;6.30;0.88;;;;;;;-149.78;100.00;50537.94;5132853;27;20065;-71
2021/12/15 05:54:31;;;;;;;0.98;0.68;;;;;;;-149.78;100.00;50535.97;5139610;27;20082;-71
2021/12/15 05:56:57;;;;;;;1.75;0.70;;;;;;;-149.78;100.00;50573.16;5157936;27;20420;-71
2021/12/15 05:59:24;;;;;;;3.42;0.90;;;;;;;-149.78;100.00;50537.94;5122227;27;20138;-71
2021/12/15 06:01:50;;;;;;;3.10;0.70;;;;;;;-149.78;100.00;50541.84;5157904;27;20466;-71
2021/12/15 06:04:16;;;;;;;4.70;1.10;;;;;;;-149.78;100.00;50541.84;5157830;27;20382;-71
2021/12/15 06:06:42;;;;;;;3.17;0.70;;;;;;;-149.78;100.00;50553.59;5139227;27;20386;-71
2021/12/15 06:09:09;;;;;;;1.10;0.50;;;;;;;-149.78;100.00;50563.38;5157615;27;20041;-71
2021/12/15 06:11:36;;;;;;;6.72;1.27;;;;;;;-149.78;100.00;50491.00;5139434;27;20035;-71
2021/12/15 06:14:03;;;;;;;1.85;0.70;;;;;;;-149.78;100.00;50565.31;5139385;27;20057;-71
2021/12/15 06:16:28;;;;;;;2.47;0.52;;;;;;;-149.78;100.00;50561.41;5138430;27;20095;-71
2021/12/15 06:18:54;;;;;;;1.90;0.52;;;;;;;-149.78;100.00;50569.22;5139011;27;20454;-71
2021/12/15 06:21:21;;;;;;;3.40;0.47;;;;;;;-149.78;100.00;50582.94;5157250;27;20031;-71
2021/12/15 06:23:48;;;;;;;1.08;0.40;;;;;;;-149.78;100.00;50549.69;5139093;27;20027;-71
2021/12/15 06:26:15;;;;;;;3.90;0.70;;;;;;;-149.78;100.00;50549.69;5138576;27;20027;-71
2021/12/15 06:28:41;;;;;;;0.43;0.30;;;;;;;-149.78;100.00;50561.41;5144438;27;20039;-71
2021/12/15 06:31:09;;;;;;;0.85;0.38;;;;;;;-149.78;100.00;50518.38;5118122;27;20108;-71
2021/12/15 06:33:38;;;;;;;1.08;0.50;;;;;;;-149.78;100.00;50557.50;5102932;27;20387;-71
2021/12/15 06:36:05;;;;;;;0.70;0.40;;;;;;;-149.78;100.00;50553.59;5136335;27;20147;-71
2021/12/15 06:38:35;;;;;;;0.73;0.30;;;;;;;-149.78;100.00;50506.66;5136331;27;20114;-71
2021/12/15 06:41:01;;;;;;;0.73;0.52;;;;;;;-149.78;100.00;50549.69;5118325;27;20084;-71
2021/12/15 06:43:28;;;;;;;0.30;0.30;;;;;;;-149.78;100.00;50588.78;5118097;27;20038;-71
2021/12/15 06:46:25;;;;;;;1.65;0.50;;;;;;;-149.78;100.00;50534.03;5134709;27;20042;-71
2021/12/15 06:59:37;;;;;;;1.65;0.88;;;;;;;-149.78;100.00;50549.69;5124852;27;20031;-72
2021/12/15 07:02:04;;;;;;;2.75;1.30;;;;;;;-149.78;100.00;50557.50;5108667;27;20589;-72
2021/12/15 07:04:29;;;;;;;0.73;0.70;;;;;;;-149.78;100.00;50561.41;5115090;27;20084;-71
2021/12/15 07:06:56;;;;;;;1.58;0.80;;;;;;;-149.78;100.00;50557.50;5137919;27;20019;-71
2021/12/15 07:09:22;;;;;;;2.60;0.80;;;;;;;-149.78;100.00;50580.97;5146363;27;20027;-71
2021/12/15 07:11:50;;;;;;;0.90;0.60;;;;;;;-149.78;100.00;50537.94;5118578;27;20019;-72
2021/12/15 07:14:16;;;;;;;1.27;0.85;;;;;;;-149.78;100.00;50541.84;5127277;27;20026;-70
2021/12/15 07:16:46;;;;;;;2.47;0.85;;;;;;;-149.78;100.00;50557.50;5139507;27;20038;-69
2021/12/15 07:19:30;;;;;;;4.93;1.10;;;;;;;-149.78;100.00;50530.13;5153159;27;20022;-70
2021/12/15 07:24:56;;;;;;;0.80;0.70;;;;;;;-149.78;100.00;50541.84;5109554;27;20070;-73
2021/12/15 07:27:22;;;;;;;2.92;0.68;;;;;;;-149.78;100.00;50545.75;5136767;27;20047;-73
2021/12/15 07:29:48;;;;;;;4.13;1.00;;;;;;;-149.78;100.00;50555.53;5149685;27;20031;-71
2021/12/15 07:32:14;;;;;;;1.13;0.43;;;;;;;-149.78;100.00;50565.31;5102923;27;20036;-74
2021/12/15 07:34:40;;;;;;;0.70;0.60;;;;;;;-149.78;100.00;50561.41;5142623;27;20042;-73
2021/12/15 07:37:05;;;;;;;0.65;0.60;;;;;;;-149.78;100.00;50584.88;5111597;27;20023;-71
2021/12/15 07:39:31;;;;;;;1.13;0.60;;;;;;;-149.78;100.00;50557.50;5135937;27;20031;-73
2021/12/15 07:42:07;;;;;;;3.90;0.50;;;;;;;-149.78;100.00;50541.84;5101071;27;20565;-72
2021/12/15 07:44:34;;;;;;;3.55;0.40;;;;;;;-149.78;100.00;50561.41;5114326;28;20036;-73
2021/12/15 07:47:00;;;;;;;0.93;0.57;;;;;;;-149.78;100.00;50571.19;5096375;28;20038;-77
2021/12/15 07:49:27;;;;;;;1.85;0.40;;;;;;;-149.78;100.00;50532.06;5106941;27;20039;-77
2021/12/15 07:52:00;;;;;;;1.85;0.50;;;;;;;-149.78;100.00;50565.31;5138713;27;20039;-70
2021/12/15 07:54:28;;;;;;;2.72;0.47;;;;;;;-149.78;100.00;50557.50;5107419;27;20059;-70
2021/12/15 07:56:53;;;;;;;0.75;0.40;;;;;;;-149.78;100.00;50510.56;5120696;27;20077;-72
2021/12/15 07:59:19;;;;;;;0.95;0.30;;;;;;;-149.78;100.00;50502.75;5129668;27;20083;-72
2021/12/15 08:01:45;;;;;;;6.72;0.88;;;;;;;-149.78;100.00;50557.50;5153709;27;20152;-70
2021/12/15 08:04:11;;;;;;;2.28;0.75;;;;;;;-149.78;100.00;50534.03;5108489;27;20055;-70
2021/12/15 08:06:37;;;;;;;1.20;0.50;;;;;;;-149.78;100.00;50539.91;5154204;27;20466;-70
2021/12/15 08:09:04;;;;;;;3.80;0.60;;;;;;;-149.78;100.00;50543.81;5129845;27;20041;-71
2021/12/15 08:11:30;;;;;;;4.53;0.47;;;;;;;-149.78;100.00;50553.59;5109418;27;20109;-72
2021/12/15 08:13:57;;;;;;;3.72;0.60;;;;;;;-149.78;100.00;50537.94;5115067;27;20486;-74
2021/12/15 08:16:24;;;;;;;2.63;0.50;;;;;;;-149.78;100.00;50543.81;5101636;27;20039;-73
2021/12/15 08:18:50;;;;;;;1.13;0.75;;;;;;;-149.78;100.00;50577.06;5141013;27;20033;-73
2021/12/15 08:21:16;;;;;;;4.03;0.75;;;;;;;-149.78;100.00;50561.41;5146156;27;20400;-74
2021/12/15 08:23:42;;;;;;;1.70;0.82;;;;;;;-149.78;100.00;50616.19;5128824;27;20033;-74
2021/12/15 08:26:07;;;;;;;3.70;0.98;;;;;;;-149.78;100.00;50532.06;5126108;27;20414;-72
2021/12/15 08:28:35;;;;;;;2.95;0.80;;;;;;;-149.78;100.00;50532.06;5139543;27;20080;-74
2021/12/15 08:31:00;;;;;;;2.88;1.00;;;;;;;-149.78;100.00;50518.38;5155425;27;20458;-74
2021/12/15 08:33:27;;;;;;;4.20;1.05;;;;;;;-149.78;100.00;50565.31;5150751;27;20023;-74
2021/12/15 08:36:01;;;;;;;1.85;0.70;;;;;;;-149.78;100.00;50547.72;5096945;28;20058;-74
2021/12/15 08:38:32;;;;;;;1.98;0.70;;;;;;;-149.78;100.00;50557.50;5134626;27;20687;-73
2021/12/15 08:41:03;;;;;;;1.88;0.65;;;;;;;-149.78;100.00;50534.03;5097856;28;20035;-74
2021/12/15 08:43:29;;;;;;;0.77;0.60;;;;;;;-149.78;100.00;50549.69;5133605;28;20081;-74
2021/12/15 08:46:06;;;;;;;2.20;0.60;;;;;;;-149.78;100.00;50537.94;5115283;28;20420;-71
2021/12/15 08:48:34;;;;;;;1.77;0.57;;;;;;;-149.78;100.00;50549.69;5132819;28;20031;-73
2021/12/15 08:51:00;;;;;;;2.10;0.70;;;;;;;-149.78;100.00;50545.75;5133475;28;20023;-73
2021/12/15 08:53:26;;;;;;;2.00;0.80;;;;;;;-149.78;100.00;50580.97;5098613;27;20059;-73
2021/12/15 08:55:52;;;;;;;2.03;0.77;;;;;;;-149.78;100.00;50577.06;5123384;28;20047;-73
2021/12/15 08:58:20;;;;;;;2.20;0.85;;;;;;;-149.78;100.00;50577.06;5098878;28;20494;-73
2021/12/15 09:00:50;;;;;;;4.97;1.48;;;;;;;-149.78;100.00;50553.59;5120929;27;20362;-73
2021/12/15 09:03:17;;;;;;;2.88;0.95;;;;;;;-149.78;100.00;50577.06;5139395;27;20392;-73
2021/12/15 09:05:43;;;;;;;4.55;1.05;;;;;;;-149.78;100.00;50541.84;5129474;27;20027;-73
2021/12/15 09:08:11;;;;;;;7.15;1.20;;;;;;;-149.78;100.00;50534.03;5091101;28;20031;-73
2021/12/15 09:10:43;;;;;;;7.07;1.23;;;;;;;-149.78;100.00;50600.53;5115769;28;20023;-73
2021/12/15 09:13:09;;;;;;;2.47;1.03;;;;;;;-149.78;100.00;50557.50;5115721;28;20462;-73
2021/12/15 09:15:35;;;;;;;3.72;1.13;;;;;;;-149.78;100.00;50535.97;5115410;28;20035;-73
2021/12/15 09:18:01;;;;;;;4.35;1.30;;;;;;;-149.78;100.00;50557.50;5133996;28;20019;-73
2021/12/15 09:20:31;;;;;;;2.63;1.05;;;;;;;-149.78;100.00;50586.84;5115639;27;20077;-73
2021/12/15 09:22:58;;;;;;;3.63;1.40;;;;;;;-149.78;100.00;50530.13;5133829;28;20035;-73
2021/12/15 09:25:24;;;;;;;2.40;1.17;;;;;;;-149.78;100.00;50580.97;5115816;28;20543;-73
2021/12/15 09:27:50;;;;;;;3.90;1.15;;;;;;;-149.78;100.00;50537.94;5111682;28;20055;-74
2021/12/15 09:30:20;;;;;;;3.88;1.17;;;;;;;-149.78;100.00;50537.94;5112161;28;20032;-73
2021/12/15 09:32:47;;;;;;;2.72;1.15;;;;;;;-149.78;100.00;50537.94;5111891;28;20044;-74
2021/12/15 09:35:16;;;;;;;8.07;1.40;;;;;;;-149.78;100.00;50575.09;5112121;28;20118;-73
2021/12/15 09:37:42;;;;;;;5.07;1.30;;;;;;;-149.78;100.00;50571.19;5113315;28;20036;-74
2021/12/15 09:40:10;;;;;;;3.17;1.23;;;;;;;-149.78;100.00;50518.38;5095025;28;20569;-73
2021/12/15 09:42:39;;;;;;;2.38;1.15;;;;;;;-149.78;100.00;50553.59;5112173;28;20115;-73
2021/12/15 10:06:52;;;;;;;5.50;1.20;;;;;;;-149.78;100.00;50559.47;5118480;27;20039;-73
2021/12/15 10:18:04;;;;;;;3.27;1.23;;;;;;;-149.78;100.00;50561.41;5121783;27;20026;-73
2021/12/15 10:20:31;;;;;;;9.80;1.40;;;;;;;-149.78;100.00;50530.13;5111717;27;20035;-73
2021/12/15 10:23:02;;;;;;;4.57;1.90;;;;;;;-149.78;100.00;50559.47;5121711;27;20066;-73
2021/12/15 10:25:28;;;;;;;4.60;1.60;;;;;;;-149.78;100.00;50522.28;5104051;28;20498;-73
2021/12/15 10:28:01;;;;;;;3.63;1.30;;;;;;;-149.78;100.00;50541.84;5140123;27;20070;-74
2021/12/15 10:30:30;;;;;;;8.02;1.85;;;;;;;-149.78;100.00;50549.69;5120677;27;20027;-71
2021/12/15 10:33:06;;;;;;;4.40;2.00;;;;;;;-149.78;100.00;50534.03;5136822;27;20031;-73
2021/12/15 10:35:36;;;;;;;6.25;1.80;;;;;;;-149.78;100.00;50549.69;5146863;27;20038;-74
2021/12/15 10:38:15;;;;;;;4.57;1.70;;;;;;;-149.78;100.00;50506.66;5135316;27;20027;-73
2021/12/15 10:40:51;;;;;;;2.63;1.42;;;;;;;-149.78;100.00;50534.03;5136435;27;20027;-74
2021/12/15 10:43:18;;;;;;;6.40;1.67;;;;;;;-149.78;100.00;50557.50;5135163;27;20034;-73
2021/12/15 10:45:51;;;;;;;3.92;1.70;;;;;;;-149.78;100.00;50545.75;5136303;27;20031;-74
2021/12/15 10:48:34;;;;;;;9.93;1.75;;;;;;;-149.78;100.00;50537.94;5136294;27;20127;-74
2021/12/15 10:51:22;;;;;;;6.15;1.85;;;;;;;-149.78;100.00;50565.31;5136052;27;20034;-74
2021/12/15 10:53:49;;;;;;;4.72;1.40;;;;;;;-149.78;100.00;50537.94;5136269;27;20474;-72
2021/12/15 10:56:21;;;;;;;8.77;1.40;;;;;;;-149.78;100.00;50534.03;5117790;27;20058;-73
2021/12/15 10:58:52;;;;;;;11.70;1.60;;;;;;;-149.78;100.00;50565.31;5114887;27;20383;-73
2021/12/15 11:01:36;;;;;;;3.92;1.30;;;;;;;-149.78;100.00;50545.75;5135717;27;20458;-73
2021/12/15 11:04:19;;;;;;;4.93;1.40;;;;;;;-149.78;100.00;50557.50;5128457;27;20489;-72
2021/12/15 11:06:46;;;;;;;4.95;1.48;;;;;;;-149.78;100.00;50494.91;5142440;27;20079;-72
2021/12/15 11:09:20;;;;;;;5.38;1.75;;;;;;;-149.78;100.00;50530.13;5132573;27;20367;-72
2021/12/15 11:11:57;;;;;;;3.42;1.42;;;;;;;-149.78;100.00;50549.69;5121818;27;20559;-72
2021/12/15 11:14:29;;;;;;;4.10;1.30;;;;;;;-149.78;100.00;50526.22;5126703;27;20031;-72
2021/12/15 11:17:19;;;;;;;5.85;1.48;;;;;;;-149.78;100.00;50534.03;5112473;27;20027;-72
2021/12/15 11:19:53;;;;;;;6.78;1.50;;;;;;;-149.78;100.00;50520.34;5119472;27;20571;-72
2021/12/15 11:22:44;;;;;;;7.38;1.23;;;;;;;-149.78;100.00;50510.56;5119743;27;20027;-73
2021/12/15 11:25:17;;;;;;;2.97;1.10;;;;;;;-149.78;100.00;50547.72;5143489;27;20034;-72
2021/12/15 11:27:52;;;;;;;1.88;0.90;;;;;;;-149.78;100.00;50510.56;5113073;27;20063;-72
2021/12/15 11:30:30;;;;;;;6.82;1.23;;;;;;;-149.78;100.00;50494.91;5114752;27;20035;-73
2021/12/15 11:32:59;;;;;;;4.38;1.20;;;;;;;-149.78;100.00;50541.84;5096467;28;20491;-72
2021/12/15 11:35:31;;;;;;;5.50;1.23;;;;;;;-149.78;100.00;50549.69;5111352;28;20020;-72
2021/12/15 11:37:58;;;;;;;6.55;1.50;;;;;;;-149.78;100.00;50498.81;5093074;28;20028;-72
2021/12/15 11:40:37;;;;;;;5.47;1.35;;;;;;;-149.78;100.00;50506.66;5109984;28;20036;-72
2021/12/15 11:43:05;;;;;;;5.85;1.38;;;;;;;-149.78;100.00;50510.56;5110024;27;20356;-72
2021/12/15 11:45:31;;;;;;;6.38;1.13;;;;;;;-149.78;100.00;50510.56;5120316;27;20056;-72
2021/12/15 11:48:25;;;;;;;7.88;2.08;;;;;;;-149.78;100.00;50510.56;5114426;27;20570;-72
2021/12/15 11:50:54;;;;;;;7.72;1.30;;;;;;;-149.78;100.00;50573.16;5096180;28;20031;-72
2021/12/15 11:53:31;;;;;;;3.65;1.05;;;;;;;-149.78;100.00;50518.38;5094514;28;20506;-73
2021/12/15 11:56:22;;;;;;;3.20;1.10;;;;;;;-149.78;100.00;50565.31;5112598;27;20015;-73
2021/12/15 11:58:57;;;;;;;7.70;1.20;;;;;;;-149.78;100.00;50506.66;5123974;27;20031;-73
2021/12/15 12:01:41;;;;;;;7.53;1.30;;;;;;;-149.78;100.00;50537.94;5118997;27;20023;-73
2021/12/15 12:04:23;;;;;;;2.38;1.00;;;;;;;-149.78;100.00;50518.38;5102360;27;20099;-73
2021/12/15 12:06:54;;;;;;;5.22;1.13;;;;;;;-149.78;100.00;50502.75;5109503;27;20529;-73
2021/12/15 12:09:22;;;;;;;9.13;1.27;;;;;;;-149.78;100.00;50510.56;5128403;27;20032;-73
2021/12/15 12:11:56;;;;;;;5.18;1.30;;;;;;;-149.78;100.00;50496.88;5118923;27;20031;-73
2021/12/15 12:14:56;;;;;;;7.20;1.30;;;;;;;-149.78;100.00;50528.16;5124014;27;20038;-73
2021/12/15 12:17:27;;;;;;;4.30;1.10;;;;;;;-149.78;100.00;50518.38;5095279;28;20062;-72
2021/12/15 12:20:03;;;;;;;1.30;0.80;;;;;;;-149.78;100.00;50512.50;5112841;28;20036;-71
2021/12/15 12:22:32;;;;;;;6.28;1.23;;;;;;;-149.78;100.00;50522.28;5112533;28;20471;-72
2021/12/15 12:25:02;;;;;;;5.47;1.48;;;;;;;-149.78;100.00;50530.13;5108403;28;20030;-73
2021/12/15 12:27:31;;;;;;;5.15;1.70;;;;;;;-149.78;100.00;50506.66;5110931;27;20039;-73
2021/12/15 12:30:00;;;;;;;3.75;1.70;;;;;;;-149.78;100.00;50506.66;5133516;27;20027;-72
2021/12/15 12:32:26;;;;;;;7.20;1.30;;;;;;;-149.78;100.00;50522.28;5119775;27;20034;-73
2021/12/15 12:34:53;;;;;;;9.73;1.90;;;;;;;-149.78;100.00;50512.50;5111879;27;20035;-73